Latest Weather Observations for Sydney Olympic Park

IDN60801

Issued at 2:32 pm EST Monday 6 July 2015 (issued every 30 minutes, with the page automatically refreshed every 10 minutes)

About weather observations | Map of weather stations | Latest weather observations for NSW | Other Formats
Station Details ID: 066212 Name: SYDNEY OLYMPIC PARK AWS (ARCHERY CENTRE) Lat: -33.83 Lon: 151.07 Height: 4.0 m
Data from the previous 72 hours. | See also: Recent months at Sydney Olympic Park
Date/Time
EST
Temp
°C
App
Temp
°C
Dew
Point
Rel
Hum
%
Delta-T
°C
Wind Press
QNH
hPa
Press
MSL
hPa
Rain
since 9 am
mm
Dir
 
Spd
km/h
Gust
km/h
Spd
kts
Gust
kts
06/02:30pm 16.8 12.3 2.0 37 6.6 W 15 26 8 14 - - 0.0
06/02:00pm 16.9 13.5 3.9 42 6.1 W 11 20 6 11 - - 0.0
06/01:30pm 16.6 13.4 3.0 40 6.2 WNW 9 15 5 8 - - 0.0
06/01:00pm 15.9 11.8 2.3 40 6.1 W 13 20 7 11 - - 0.0
06/12:30pm 15.7 12.1 3.2 43 5.7 NW 11 19 6 10 - - 0.0
06/12:00pm 15.2 11.6 3.0 44 5.5 NW 11 17 6 9 - - 0.0
06/11:30am 13.8 10.0 1.5 43 5.3 WNW 11 19 6 10 - - 0.0
06/11:00am 13.2 10.2 4.1 54 4.1 WNW 9 15 5 8 - - 0.0
06/10:30am 12.5 9.4 3.5 54 4.0 WNW 9 13 5 7 - - 0.0
06/10:00am 11.4 8.1 2.2 53 3.9 NW 9 13 5 7 - - 0.0
06/09:30am 10.5 7.3 3.1 60 3.2 NW 9 13 5 7 - - 0.0
06/09:00am 8.2 5.2 4.0 75 1.8 WNW 9 11 5 6 - - 0.0
06/08:30am 6.4 4.9 4.9 90 0.7 WNW 2 9 1 5 - - 0.0
06/08:00am 3.2 1.7 2.8 97 0.2 CALM 0 0 0 0 - - 0.0
06/07:30am 1.9 0.1 1.3 96 0.2 CALM 0 0 0 0 - - 0.0
06/07:00am 1.6 -0.2 0.9 95 0.3 CALM 0 0 0 0 - - 0.0
06/06:30am 2.0 0.2 1.3 95 0.3 CALM 0 4 0 2 - - 0.0
06/06:00am 2.4 0.6 1.5 94 0.3 CALM 0 0 0 0 - - 0.0
06/05:30am 2.4 0.3 1.4 93 0.4 WNW 2 7 1 4 - - 0.0
06/05:00am 2.6 0.9 1.6 93 0.4 CALM 0 0 0 0 - - 0.0
06/04:30am 3.2 1.6 2.2 93 0.4 CALM 0 0 0 0 - - 0.0
06/04:00am 3.5 1.5 2.5 93 0.4 WNW 2 7 1 4 - - 0.0
06/03:30am 4.0 1.4 3.0 93 0.4 WNW 6 9 3 5 - - 0.0
06/03:00am 4.3 1.5 3.4 94 0.4 WNW 7 11 4 6 - - 0.0
06/02:30am 4.3 2.5 3.6 95 0.3 WNW 2 7 1 4 - - 0.0
06/02:00am 4.7 2.1 4.1 96 0.3 NW 7 11 4 6 - - 0.0
06/01:30am 5.2 3.3 4.8 97 0.2 WNW 4 7 2 4 - - 0.0
06/01:00am 5.4 4.3 5.0 97 0.2 CALM 0 0 0 0 - - 0.0
06/12:30am 5.7 4.6 5.3 97 0.2 CALM 0 0 0 0 - - 0.0
06/12:00am 5.6 3.2 5.2 97 0.2 WNW 7 9 4 5 - - 0.0
 
Date/Time
EST
Temp
°C
App
Temp
°C
Dew
Point
Rel
Hum
%
Delta-T
°C
Wind Press
QNH
hPa
Press
MSL
hPa
Rain
since 9 am
mm
Dir
 
Spd
km/h
Gust
km/h
Spd
kts
Gust
kts
05/11:30pm 5.4 4.2 4.8 96 0.3 CALM 0 0 0 0 - - 0.0
05/11:00pm 5.6 4.5 5.0 96 0.3 CALM 0 0 0 0 - - 0.0
05/10:30pm 5.7 3.3 5.1 96 0.3 WNW 7 11 4 6 - - 0.0
05/10:00pm 5.9 4.8 5.3 96 0.3 CALM 0 0 0 0 - - 0.0
05/09:30pm 5.8 4.7 5.1 95 0.3 CALM 0 0 0 0 - - 0.0
05/09:00pm 6.1 5.1 5.4 95 0.3 CALM 0 0 0 0 - - 0.0
05/08:30pm 6.3 5.3 5.6 95 0.3 CALM 0 0 0 0 - - 0.0
05/08:00pm 6.5 5.5 5.5 93 0.4 CALM 0 0 0 0 - - 0.0
05/07:30pm 6.9 5.9 5.7 92 0.5 CALM 0 4 0 2 - - 0.0
05/07:00pm 7.0 6.0 5.5 90 0.7 CALM 0 0 0 0 - - 0.0
05/06:30pm 7.7 6.7 5.7 87 0.9 CALM 0 0 0 0 - - 0.0
05/06:00pm 8.4 7.4 5.7 83 1.2 CALM 0 0 0 0 - - 0.0
05/05:30pm 9.6 8.7 6.1 79 1.6 CALM 0 0 0 0 - - 0.0
05/05:00pm 11.2 10.4 6.7 74 2.1 CALM 0 0 0 0 - - 0.0
05/04:30pm 13.5 13.0 7.7 68 2.9 CALM 0 0 0 0 - - 0.0
05/04:00pm 16.5 16.1 8.2 58 4.2 CALM 0 0 0 0 - - 0.0
05/03:30pm 18.4 17.0 5.6 43 6.2 WNW 2 7 1 4 - - 0.0
05/03:00pm 18.1 16.4 5.7 44 6.0 W 4 9 2 5 - - 0.0
05/02:30pm 17.4 14.9 4.0 41 6.3 WNW 6 11 3 6 - - 0.0
05/02:00pm 16.9 14.4 3.9 42 6.1 WNW 6 9 3 5 - - 0.0
05/01:30pm 16.8 14.7 3.8 42 6.0 NW 4 9 2 5 - - 0.0
05/01:00pm 16.2 13.7 3.6 43 5.8 NW 6 9 3 5 - - 0.0
05/12:30pm 15.3 12.4 4.7 49 5.0 WNW 9 13 5 7 - - 0.0
05/12:00pm 13.7 10.5 3.2 49 4.7 WNW 9 11 5 6 - - 0.0
05/11:30am 13.3 10.8 4.7 56 4.0 WNW 7 11 4 6 - - 0.0
05/11:00am 12.1 9.4 3.9 57 3.7 WNW 7 11 4 6 - - 0.0
05/10:30am 11.2 8.5 3.5 59 3.4 WNW 7 11 4 6 - - 0.0
05/10:00am 10.4 7.3 3.4 62 3.1 NW 9 13 5 7 - - 0.0
05/09:30am 8.9 5.7 3.3 68 2.4 WNW 9 15 5 8 - - 0.0
05/09:00am 7.6 4.5 3.6 76 1.7 WNW 9 13 5 7 - - 0.0
05/08:30am 6.1 3.3 5.1 93 0.4 NW 9 13 5 7 - - 0.0
05/08:00am 4.1 1.0 3.7 97 0.2 NW 9 11 5 6 - - 0.0
05/07:30am 2.9 0.5 2.3 96 0.2 WNW 4 7 2 4 - - 0.0
05/07:00am 2.8 0.1 2.4 97 0.2 WNW 6 7 3 4 - - 0.0
05/06:30am 2.8 0.4 2.2 96 0.2 WNW 4 9 2 5 - - 0.0
05/06:00am 3.0 0.3 2.4 96 0.2 WNW 6 11 3 6 - - 0.0
05/05:30am 2.9 1.3 2.3 96 0.2 CALM 0 0 0 0 - - 0.0
05/05:00am 3.1 0.4 2.5 96 0.2 WNW 6 7 3 4 - - 0.0
05/04:30am 3.6 0.8 3.0 96 0.2 NW 7 11 4 6 - - 0.0
05/04:00am 3.7 0.9 3.1 96 0.2 WNW 7 9 4 5 - - 0.0
05/03:30am 3.8 1.0 3.2 96 0.2 NW 7 11 4 6 - - 0.0
05/03:00am 3.9 1.3 3.3 96 0.2 WNW 6 9 3 5 - - 0.0
05/02:30am 3.9 1.1 3.3 96 0.2 WNW 7 11 4 6 - - 0.0
05/02:00am 4.1 2.7 3.5 96 0.2 CALM 0 7 0 4 - - 0.0
05/01:30am 4.2 2.4 3.6 96 0.2 NW 2 7 1 4 - - 0.0
05/01:00am 4.4 3.0 3.8 96 0.2 CALM 0 7 0 4 - - 0.0
05/12:30am 4.6 3.3 4.0 96 0.3 CALM 0 0 0 0 - - 0.0
05/12:00am 5.0 3.8 4.4 96 0.3 CALM 0 0 0 0 - - 0.0
 
Date/Time
EST
Temp
°C
App
Temp
°C
Dew
Point
Rel
Hum
%
Delta-T
°C
Wind Press
QNH
hPa
Press
MSL
hPa
Rain
since 9 am
mm
Dir
 
Spd
km/h
Gust
km/h
Spd
kts
Gust
kts
04/11:30pm 5.2 4.0 4.6 96 0.3 CALM 0 0 0 0 - - 0.0
04/11:00pm 5.1 3.9 4.5 96 0.3 CALM 0 0 0 0 - - 0.0
04/10:30pm 5.2 4.0 4.6 96 0.3 CALM 0 0 0 0 - - 0.0
04/10:00pm 5.6 4.5 5.2 97 0.2 CALM 0 0 0 0 - - 0.0
04/09:30pm 5.1 3.9 4.4 95 0.3 CALM 0 0 0 0 - - 0.0
04/09:00pm 5.6 4.5 4.9 95 0.3 CALM 0 0 0 0 - - 0.0
04/08:30pm 5.7 4.6 5.0 95 0.3 CALM 0 0 0 0 - - 0.0
04/08:00pm 5.6 4.4 4.4 92 0.5 CALM 0 0 0 0 - - 0.0
04/07:30pm 6.1 5.0 4.9 92 0.5 CALM 0 0 0 0 - - 0.0
04/07:00pm 6.5 5.4 5.0 90 0.7 CALM 0 0 0 0 - - 0.0
04/06:30pm 7.0 5.9 5.2 88 0.8 CALM 0 0 0 0 - - 0.0
04/06:00pm 7.8 6.7 5.3 84 1.1 CALM 0 0 0 0 - - 0.0
04/05:30pm 8.4 5.9 4.0 74 1.9 SE 6 7 3 4 - - 0.0
04/05:00pm 10.8 8.3 4.0 63 3.0 SE 6 7 3 4 - - 0.0
04/04:30pm 12.8 11.7 5.0 59 3.6 CALM 0 0 0 0 - - 0.0
04/04:00pm 15.3 13.0 0.7 37 6.3 WSW 2 6 1 3 - - 0.0
04/03:30pm 15.4 12.3 0.0 35 6.5 WSW 6 9 3 5 - - 0.0
04/03:00pm 15.5 12.4 1.3 38 6.2 SW 7 17 4 9 - - 0.0
04/02:30pm 15.8 12.7 0.4 35 6.6 W 6 9 3 5 - - 0.0
04/02:00pm 15.4 13.5 2.6 42 5.7 WSW 2 7 1 4 - - 0.0
04/01:30pm 14.3 11.5 2.2 44 5.3 SW 6 11 3 6 - - 0.0
04/01:00pm 14.0 10.9 1.6 43 5.4 WSW 7 11 4 6 - - 0.0
04/12:30pm 13.0 10.1 2.8 50 4.5 W 7 13 4 7 - - 0.0
04/12:00pm 13.0 10.3 3.9 54 4.1 WNW 7 13 4 7 - - 0.0
04/11:30am 12.0 9.5 5.0 62 3.2 WNW 7 13 4 7 - - 0.0
04/11:00am 10.4 7.8 3.2 61 3.1 NW 6 11 3 6 - - 0.0
04/10:30am 9.1 6.8 4.7 74 2.0 WNW 6 11 3 6 - - 0.0
04/10:00am 7.2 4.7 5.0 86 1.0 NW 7 11 4 6 - - 0.0
04/09:30am 7.0 4.7 5.8 92 0.5 WNW 7 11 4 6 - - 0.0
04/09:00am 6.2 3.9 5.6 96 0.3 WNW 7 11 4 6 - - 0.0
04/08:30am 5.0 3.1 4.9 99 0.0 WNW 4 7 2 4 - - 0.0
04/08:00am 4.9 3.4 4.8 99 0.0 WNW 2 7 1 4 - - 0.0
04/07:30am 2.6 1.0 2.3 98 0.1 CALM 0 0 0 0 - - 0.0
04/07:00am 2.5 0.8 2.1 97 0.2 CALM 0 0 0 0 - - 0.0
04/06:30am 2.9 1.3 2.5 97 0.2 CALM 0 0 0 0 - - 0.0
04/06:00am 3.6 2.2 3.3 98 0.1 CALM 0 0 0 0 - - 0.0
04/05:30am 4.1 1.6 3.8 98 0.1 WNW 6 9 3 5 - - 0.0
04/05:00am 4.0 2.6 3.7 98 0.1 CALM 0 6 0 3 - - 0.0
04/04:30am 4.2 1.7 3.9 98 0.1 WNW 6 9 3 5 - - 0.0
04/04:00am 4.0 2.6 3.6 97 0.2 CALM 0 7 0 4 - - 0.0
04/03:30am 4.3 3.0 3.9 97 0.2 CALM 0 0 0 0 - - 0.0
04/03:00am 4.8 2.4 4.5 98 0.1 NW 6 7 3 4 - - 0.0
04/02:30am 4.9 2.9 4.6 98 0.1 WNW 4 7 2 4 - - 0.0
04/02:00am 4.9 3.7 4.6 98 0.1 CALM 0 0 0 0 - - 0.0
04/01:30am 4.6 3.3 4.3 98 0.1 CALM 0 0 0 0 - - 0.0
04/01:00am 4.8 3.6 4.5 98 0.1 CALM 0 6 0 3 - - 0.0
04/12:30am 4.8 3.2 4.4 97 0.2 WNW 2 7 1 4 - - 0.0
04/12:00am 4.9 3.7 4.5 97 0.2 CALM 0 0 0 0 - - 0.0
 
Date/Time
EST
Temp
°C
App
Temp
°C
Dew
Point
Rel
Hum
%
Delta-T
°C
Wind Press
QNH
hPa
Press
MSL
hPa
Rain
since 9 am
mm
Dir
 
Spd
km/h
Gust
km/h
Spd
kts
Gust
kts
03/11:30pm 5.0 3.8 4.6 97 0.2 CALM 0 0 0 0 - - 0.0
03/11:00pm 5.4 4.3 5.0 97 0.2 CALM 0 0 0 0 - - 0.0
03/10:30pm 5.5 4.4 4.9 96 0.3 CALM 0 0 0 0 - - 0.0
03/10:00pm 5.7 4.6 5.1 96 0.3 CALM 0 0 0 0 - - 0.0
03/09:30pm 5.8 4.7 5.1 95 0.3 CALM 0 0 0 0 - - 0.0
03/09:00pm 6.0 4.9 5.3 95 0.3 CALM 0 0 0 0 - - 0.0
03/08:30pm 6.2 5.1 5.3 94 0.4 CALM 0 0 0 0 - - 0.0
03/08:00pm 6.5 5.5 5.6 94 0.4 CALM 0 0 0 0 - - 0.0
03/07:30pm 6.7 5.7 5.5 92 0.5 CALM 0 0 0 0 - - 0.0
03/07:00pm 7.0 6.0 5.6 91 0.6 CALM 0 0 0 0 - - 0.0
03/06:30pm 7.4 6.4 5.5 88 0.8 CALM 0 0 0 0 - - 0.0
03/06:00pm 8.1 7.0 5.2 82 1.3 CALM 0 2 0 1 - - 0.0
03/05:30pm 9.2 8.2 5.4 77 1.7 CALM 0 0 0 0 - - 0.0
03/05:00pm 10.7 8.4 4.8 67 2.7 SE 6 7 3 4 - - 0.0
03/04:30pm 12.4 9.5 4.9 60 3.4 SE 9 13 5 7 - - 0.0
03/04:00pm 13.3 10.6 5.5 59 3.7 SE 9 15 5 8 - - 0.0
03/03:30pm 13.9 10.7 5.0 55 4.1 SE 11 15 6 8 - - 0.0
03/03:00pm 14.4 11.2 5.2 54 4.3 ESE 11 17 6 9 - - 0.0

Other Formats:

Comma delimited format used in spreadsheet applications
http://www.bom.gov.au/fwo/IDN60801/IDN60801.95765.axf

JavaScript Object Notation format (JSON) in row-major order
http://www.bom.gov.au/fwo/IDN60801/IDN60801.95765.json